Riddle, Oregon
Current Conditions -  °F | °C
As of 7:53 AM on Saturday 25 Oct 2014 (Local Time) from KRBG Reporting Station
Clear Clear  
Wind Chill: 58°   Ceiling: Unl
Heat Index: 58°   Visibility: 10mi
Dew Point: 47°   Wind: 10mph
Humidity: 67%   Direction: 150°SSE
Pressure: 29.43"   Gusts: NA
Location:  42.95°N, 123.36°W
Report Text: KRBG 251453Z AUTO 15009KT 10SM CLR 14/08 A2943 RMK AO2 SLP966 60004 T01440083 56051 $
Loading
Personal Weather Stations






























Interactive Weather Map
Tropical Storm Tracking
New forecast layout! Learn more

10-Day Weather Forecast

Advertisements
Track Severe Weather on mobile